Time;durP1;ratioP1;P1;durP2;ratioP2;P2;SDS_P1;SDS_P2;PMS_P1;PMS_P2;Temp;Humidity;BMP_temperature;BMP_pressure;BME280_temperature;BME280_humidity;BME280_pressure;Samples;Min_cycle;Max_cycle;Signal;HPM_P1;HPM_P2
2023/12/14 00:01:25;;;;;;;10.30;5.05;;;4.60;99.90;;;;;;5074364;28;20036;-61
2023/12/14 00:03:50;;;;;;;11.80;5.70;;;4.60;99.90;;;;;;5074499;28;20409;-60
2023/12/14 00:06:16;;;;;;;12.27;6.20;;;4.60;99.90;;;;;;5074392;28;20447;-61
2023/12/14 00:08:42;;;;;;;11.82;5.70;;;4.60;99.90;;;;;;5073076;28;20074;-61
2023/12/14 00:11:09;;;;;;;11.70;5.80;;;4.60;99.90;;;;;;5074014;28;20048;-60
2023/12/14 00:13:35;;;;;;;11.00;5.82;;;4.50;99.90;;;;;;5074395;28;20048;-61
2023/12/14 00:16:01;;;;;;;10.50;5.90;;;4.50;99.90;;;;;;5073845;28;20477;-60
2023/12/14 00:18:27;;;;;;;14.10;6.40;;;4.60;99.90;;;;;;5073776;28;20048;-60
2023/12/14 00:20:53;;;;;;;13.30;6.53;;;4.50;99.90;;;;;;5074111;28;20412;-61
2023/12/14 00:23:20;;;;;;;16.70;6.75;;;4.50;99.90;;;;;;5073985;28;20041;-61
2023/12/14 00:25:46;;;;;;;11.75;5.78;;;4.50;99.90;;;;;;5073934;28;20120;-61
2023/12/14 00:28:11;;;;;;;11.35;5.38;;;4.50;99.90;;;;;;5073828;28;20132;-61
2023/12/14 00:30:37;;;;;;;10.77;6.47;;;4.50;99.90;;;;;;5074023;28;20120;-60
2023/12/14 00:33:03;;;;;;;10.23;5.80;;;4.50;99.90;;;;;;5073989;28;20046;-60
2023/12/14 00:35:29;;;;;;;9.20;5.35;;;4.40;99.90;;;;;;5073822;28;20484;-60
2023/12/14 00:37:54;;;;;;;11.35;5.35;;;4.50;99.90;;;;;;5073564;28;20044;-60
2023/12/14 00:40:20;;;;;;;11.93;5.22;;;4.50;99.90;;;;;;5073589;28;20515;-60
2023/12/14 00:42:46;;;;;;;12.38;5.72;;;4.50;99.90;;;;;;5073532;28;20467;-60
2023/12/14 00:45:12;;;;;;;10.65;4.63;;;4.40;99.90;;;;;;5072497;28;20106;-61
2023/12/14 00:47:37;;;;;;;10.60;4.75;;;4.50;99.90;;;;;;5073380;28;20051;-61
2023/12/14 00:50:04;;;;;;;9.88;5.72;;;4.50;99.90;;;;;;5073620;28;20056;-61
2023/12/14 00:52:30;;;;;;;8.95;4.40;;;4.50;99.90;;;;;;5072251;28;20063;-61
2023/12/14 00:54:55;;;;;;;9.73;4.63;;;4.50;99.90;;;;;;5073370;28;20484;-60
2023/12/14 00:57:21;;;;;;;10.95;4.60;;;4.50;99.90;;;;;;5073240;28;20131;-60
2023/12/14 00:59:47;;;;;;;11.43;4.75;;;4.40;99.90;;;;;;5073081;28;20041;-61
2023/12/14 01:02:12;;;;;;;9.25;4.38;;;4.50;99.90;;;;;;5073278;28;20457;-60
2023/12/14 01:04:38;;;;;;;10.32;4.80;;;4.50;99.90;;;;;;5073180;28;20495;-59
2023/12/14 01:07:04;;;;;;;11.38;5.43;;;4.50;99.90;;;;;;5073307;28;20400;-60
2023/12/14 01:09:30;;;;;;;10.63;5.50;;;4.50;99.90;;;;;;5071630;28;20094;-61
2023/12/14 01:11:55;;;;;;;11.02;5.40;;;4.50;99.90;;;;;;5072916;28;20098;-60
2023/12/14 01:14:21;;;;;;;12.23;5.85;;;4.50;99.90;;;;;;5072748;28;20469;-61
2023/12/14 01:16:47;;;;;;;13.60;5.75;;;4.50;99.90;;;;;;5072837;28;20503;-61
2023/12/14 01:19:12;;;;;;;11.35;5.13;;;4.50;99.90;;;;;;5071818;28;20067;-60
2023/12/14 01:21:38;;;;;;;10.13;5.47;;;4.50;99.90;;;;;;5072932;28;20032;-61
2023/12/14 01:24:04;;;;;;;11.63;6.25;;;4.60;99.90;;;;;;5072307;28;20028;-61
2023/12/14 01:26:30;;;;;;;11.85;6.28;;;4.50;99.90;;;;;;5072604;28;20643;-60
2023/12/14 01:28:55;;;;;;;14.95;6.50;;;4.50;99.90;;;;;;5072568;28;20075;-61
2023/12/14 01:31:23;;;;;;;14.93;6.35;;;4.60;99.90;;;;;;5072613;28;20044;-61
2023/12/14 01:33:49;;;;;;;14.68;6.38;;;4.50;99.90;;;;;;5054640;28;20044;-60
2023/12/14 01:36:26;;;;;;;15.35;7.13;;;4.50;99.90;;;;;;5071432;28;20072;-59
2023/12/14 01:38:52;;;;;;;14.07;6.72;;;4.40;99.90;;;;;;5072584;28;20041;-60
2023/12/14 01:41:18;;;;;;;13.75;7.13;;;4.60;99.90;;;;;;5072462;28;20124;-60
2023/12/14 01:43:44;;;;;;;15.15;7.53;;;4.60;99.90;;;;;;5072317;28;20055;-60
2023/12/14 01:46:11;;;;;;;15.23;6.90;;;4.50;99.90;;;;;;5072434;28;20469;-60
2023/12/14 01:48:36;;;;;;;13.75;6.75;;;4.50;99.90;;;;;;5072402;28;20127;-60
2023/12/14 01:51:03;;;;;;;13.23;7.38;;;4.50;99.90;;;;;;5072459;28;20458;-60
2023/12/14 01:53:28;;;;;;;14.43;6.82;;;4.50;99.90;;;;;;5072212;28;20385;-60
2023/12/14 01:55:54;;;;;;;14.52;7.07;;;4.50;99.90;;;;;;5072054;28;20070;-60
2023/12/14 01:58:20;;;;;;;17.90;7.65;;;4.50;99.90;;;;;;5072399;28;20041;-60
2023/12/14 02:01:06;;;;;;;16.00;7.57;;;4.50;99.90;;;;;;5071208;28;20041;-60
2023/12/14 02:03:32;;;;;;;13.70;6.50;;;4.50;99.90;;;;;;5072182;28;20039;-60
2023/12/14 02:05:58;;;;;;;14.18;7.20;;;4.60;99.90;;;;;;5070890;28;20049;-60
2023/12/14 02:08:24;;;;;;;15.32;6.97;;;4.60;99.90;;;;;;5070797;28;20076;-60
2023/12/14 02:10:50;;;;;;;14.55;6.93;;;4.50;99.90;;;;;;5072339;28;20064;-60
2023/12/14 02:13:16;;;;;;;12.43;6.72;;;4.50;99.90;;;;;;5072189;28;20456;-60
2023/12/14 02:15:42;;;;;;;12.38;6.93;;;4.50;99.90;;;;;;5072202;28;20040;-60
2023/12/14 02:18:08;;;;;;;14.30;6.68;;;4.50;99.90;;;;;;5071968;28;20099;-60
2023/12/14 02:20:33;;;;;;;12.68;6.95;;;4.50;99.90;;;;;;5071968;28;20037;-59
2023/12/14 02:22:59;;;;;;;12.73;6.40;;;4.50;99.90;;;;;;5072217;28;20400;-64
2023/12/14 02:25:25;;;;;;;16.00;7.28;;;4.60;99.90;;;;;;5071830;28;20040;-60
2023/12/14 02:27:51;;;;;;;13.73;6.68;;;4.50;99.90;;;;;;5072392;28;20044;-60
2023/12/14 02:30:17;;;;;;;16.42;6.90;;;4.60;99.90;;;;;;5071928;28;20044;-60
2023/12/14 02:32:44;;;;;;;14.85;7.55;;;4.60;99.90;;;;;;5072059;28;20045;-60
2023/12/14 02:35:09;;;;;;;13.25;6.70;;;4.50;99.90;;;;;;5073734;28;20166;-60
2023/12/14 02:37:41;;;;;;;17.98;7.93;;;4.60;99.90;;;;;;5057704;28;20127;-61
2023/12/14 02:40:08;;;;;;;12.82;7.07;;;4.60;99.90;;;;;;5075927;28;20397;-60
2023/12/14 02:42:34;;;;;;;12.32;6.55;;;4.60;99.90;;;;;;5075813;28;20040;-59
2023/12/14 02:45:01;;;;;;;14.77;6.85;;;4.50;99.90;;;;;;5075856;28;20041;-60
2023/12/14 02:47:28;;;;;;;15.48;6.97;;;4.50;99.90;;;;;;5075896;28;20116;-60
2023/12/14 02:49:54;;;;;;;12.90;6.63;;;4.60;99.90;;;;;;5075615;28;20048;-60
2023/12/14 02:52:19;;;;;;;16.58;6.90;;;4.60;99.90;;;;;;5075585;28;20124;-60
2023/12/14 02:54:45;;;;;;;13.68;6.70;;;4.60;99.90;;;;;;5075739;28;20032;-60
2023/12/14 02:57:11;;;;;;;15.25;7.50;;;4.50;99.90;;;;;;5075419;28;20044;-60
2023/12/14 02:59:36;;;;;;;15.77;7.47;;;4.50;99.90;;;;;;5075698;28;20543;-60
2023/12/14 03:02:02;;;;;;;15.52;6.88;;;4.60;99.90;;;;;;5075409;28;20093;-60
2023/12/14 03:04:28;;;;;;;14.40;6.57;;;4.50;99.90;;;;;;5075385;28;20416;-60
2023/12/14 03:06:55;;;;;;;17.52;7.63;;;4.50;99.90;;;;;;5075127;28;20086;-60
2023/12/14 03:09:21;;;;;;;17.65;7.82;;;4.40;99.90;;;;;;5075346;28;20048;-60
2023/12/14 03:11:47;;;;;;;15.23;6.57;;;4.50;99.90;;;;;;5075358;28;20102;-60
2023/12/14 03:14:13;;;;;;;14.75;7.40;;;4.60;99.90;;;;;;5075342;28;20075;-60
2023/12/14 03:16:38;;;;;;;12.73;6.82;;;4.60;99.90;;;;;;5075221;28;20047;-60
2023/12/14 03:19:05;;;;;;;17.77;7.47;;;4.50;99.90;;;;;;5073975;28;20086;-60
2023/12/14 03:21:30;;;;;;;16.83;6.80;;;4.50;99.90;;;;;;5074959;28;20083;-60
2023/12/14 03:23:56;;;;;;;16.65;6.88;;;4.50;99.90;;;;;;5075221;28;20064;-60
2023/12/14 03:26:22;;;;;;;13.55;7.20;;;4.50;99.90;;;;;;5075151;28;20064;-60
2023/12/14 03:28:48;;;;;;;24.25;9.70;;;4.50;99.90;;;;;;5075263;28;20067;-60
2023/12/14 03:31:14;;;;;;;15.32;7.63;;;4.60;99.90;;;;;;5074930;28;20373;-60
2023/12/14 03:33:40;;;;;;;17.70;7.53;;;4.50;99.90;;;;;;5074872;28;20072;-60
2023/12/14 03:36:06;;;;;;;19.75;7.47;;;4.50;99.90;;;;;;5074802;28;20099;-59
2023/12/14 03:38:33;;;;;;;15.02;6.88;;;4.50;99.90;;;;;;5073379;28;20520;-60
2023/12/14 03:40:59;;;;;;;14.77;7.80;;;4.50;99.90;;;;;;5073474;28;20074;-59
2023/12/14 03:43:24;;;;;;;19.00;8.15;;;4.50;99.90;;;;;;5072188;28;20040;-60
2023/12/14 03:45:50;;;;;;;17.80;7.32;;;4.50;99.90;;;;;;5073375;28;20036;-60
2023/12/14 03:48:16;;;;;;;16.55;7.70;;;4.50;99.90;;;;;;5073465;28;20048;-62
2023/12/14 03:50:41;;;;;;;19.23;9.30;;;4.50;99.90;;;;;;5073254;28;20052;-59
2023/12/14 03:53:07;;;;;;;16.50;8.45;;;4.50;99.90;;;;;;5073466;28;20068;-60
2023/12/14 03:55:33;;;;;;;16.55;8.25;;;4.50;99.90;;;;;;5073634;28;20043;-60
2023/12/14 03:57:59;;;;;;;17.63;8.35;;;4.40;99.90;;;;;;5073612;28;20076;-60
2023/12/14 04:00:25;;;;;;;18.00;8.05;;;4.50;99.90;;;;;;5073092;28;20123;-60
2023/12/14 04:02:50;;;;;;;18.35;8.40;;;4.40;99.90;;;;;;5073250;28;20040;-60
2023/12/14 04:05:17;;;;;;;15.93;8.90;;;4.40;99.90;;;;;;5073409;28;20044;-60
2023/12/14 04:07:42;;;;;;;15.93;8.32;;;4.40;99.90;;;;;;5073380;28;20053;-60
2023/12/14 04:10:09;;;;;;;16.95;8.73;;;4.50;99.90;;;;;;5073006;28;20400;-60
2023/12/14 04:12:36;;;;;;;18.38;9.13;;;4.40;99.90;;;;;;5073341;28;20045;-60
2023/12/14 04:15:02;;;;;;;16.83;8.35;;;4.40;99.90;;;;;;5073094;28;20127;-60
2023/12/14 04:17:28;;;;;;;18.45;9.38;;;4.40;99.90;;;;;;5072870;28;20041;-59
2023/12/14 04:19:54;;;;;;;16.98;8.85;;;4.40;99.90;;;;;;5072933;28;20040;-60
2023/12/14 04:22:19;;;;;;;19.45;9.18;;;4.50;99.90;;;;;;5071606;28;20043;-60
2023/12/14 04:24:45;;;;;;;16.30;8.85;;;4.40;99.90;;;;;;5072817;28;20115;-60
2023/12/14 04:27:11;;;;;;;23.52;10.18;;;4.40;99.90;;;;;;5072849;28;20044;-61
2023/12/14 04:29:37;;;;;;;18.15;8.45;;;4.50;99.90;;;;;;5073272;28;20068;-59
2023/12/14 04:32:03;;;;;;;16.45;7.90;;;4.50;99.90;;;;;;5072732;28;20040;-59
2023/12/14 04:34:29;;;;;;;18.67;8.38;;;4.40;99.90;;;;;;5072655;28;20075;-60
2023/12/14 04:36:57;;;;;;;16.95;8.27;;;4.50;99.90;;;;;;5034220;28;1099560;-61
2023/12/14 04:39:24;;;;;;;15.80;8.32;;;4.40;99.90;;;;;;5073708;28;20052;-60
2023/12/14 04:41:50;;;;;;;17.10;8.50;;;4.40;99.90;;;;;;5073627;28;20036;-60
2023/12/14 04:44:16;;;;;;;19.10;9.52;;;4.40;99.90;;;;;;5073286;28;20044;-60
2023/12/14 04:46:42;;;;;;;21.52;8.30;;;4.40;99.90;;;;;;5073500;28;20043;-60
2023/12/14 04:49:08;;;;;;;18.98;8.27;;;4.60;99.90;;;;;;5073593;28;20743;-60
2023/12/14 04:51:33;;;;;;;21.98;8.82;;;4.40;99.90;;;;;;5073598;28;20040;-60
2023/12/14 04:53:59;;;;;;;15.95;8.27;;;4.40;99.90;;;;;;5072736;28;20037;-60
2023/12/14 04:56:25;;;;;;;15.77;8.52;;;4.40;99.90;;;;;;5073357;28;20111;-60
2023/12/14 04:58:50;;;;;;;21.48;8.43;;;4.50;99.90;;;;;;5072552;28;20040;-60
2023/12/14 05:01:16;;;;;;;19.83;9.63;;;4.50;99.90;;;;;;5071876;28;20036;-60
2023/12/14 05:03:42;;;;;;;17.75;9.43;;;4.40;99.90;;;;;;5073414;28;20041;-60
2023/12/14 05:06:08;;;;;;;20.80;8.90;;;4.50;99.90;;;;;;5073392;28;20090;-60
2023/12/14 05:08:33;;;;;;;19.88;10.25;;;4.50;99.90;;;;;;5073184;28;20042;-60
2023/12/14 05:10:59;;;;;;;17.73;9.40;;;4.40;99.90;;;;;;5072911;28;20044;-60
2023/12/14 05:13:25;;;;;;;17.27;7.95;;;4.50;99.90;;;;;;5073287;28;20135;-60
2023/12/14 05:15:51;;;;;;;17.65;8.27;;;4.50;99.90;;;;;;5073124;28;20083;-60
2023/12/14 05:18:18;;;;;;;17.70;7.72;;;4.50;99.90;;;;;;5072876;28;20106;-60
2023/12/14 05:20:45;;;;;;;18.60;8.32;;;4.50;99.90;;;;;;5073024;28;20043;-60
2023/12/14 05:23:14;;;;;;;20.25;8.48;;;4.50;99.90;;;;;;5072841;28;20041;-60
2023/12/14 05:25:40;;;;;;;18.05;8.52;;;4.50;99.90;;;;;;5071514;28;20094;-60
2023/12/14 05:28:05;;;;;;;18.35;8.55;;;4.50;99.90;;;;;;5073084;28;20063;-60
2023/12/14 05:30:31;;;;;;;20.55;8.05;;;4.50;99.90;;;;;;5072576;28;20476;-60
2023/12/14 05:32:56;;;;;;;18.20;8.70;;;4.50;99.90;;;;;;5072453;28;20101;-60
2023/12/14 05:35:22;;;;;;;19.27;9.57;;;4.40;99.90;;;;;;5072696;28;20141;-59
2023/12/14 05:37:49;;;;;;;20.10;8.27;;;4.50;99.90;;;;;;5072292;28;20051;-60
2023/12/14 05:40:15;;;;;;;21.83;9.40;;;4.40;99.90;;;;;;5072658;28;20115;-61
2023/12/14 05:42:40;;;;;;;18.13;8.95;;;4.40;99.90;;;;;;5072573;28;20111;-59
2023/12/14 05:45:07;;;;;;;18.10;8.85;;;4.50;99.90;;;;;;5072381;28;20044;-60
2023/12/14 05:47:34;;;;;;;20.25;9.00;;;4.50;99.90;;;;;;5072277;28;20527;-60
2023/12/14 05:50:03;;;;;;;17.02;8.27;;;4.50;99.90;;;;;;5071034;28;20055;-60
2023/12/14 05:52:29;;;;;;;16.55;8.85;;;4.50;99.90;;;;;;5071030;28;20080;-60
2023/12/14 05:54:55;;;;;;;17.48;8.38;;;4.40;99.90;;;;;;5072198;28;20476;-60
2023/12/14 05:57:20;;;;;;;17.42;8.38;;;4.50;99.90;;;;;;5071952;28;20048;-60
2023/12/14 05:59:46;;;;;;;20.30;10.10;;;4.50;99.90;;;;;;5072125;28;20084;-60
2023/12/14 06:02:12;;;;;;;16.83;8.43;;;4.60;99.90;;;;;;5072316;28;20039;-60
2023/12/14 06:04:37;;;;;;;19.13;8.23;;;4.60;99.90;;;;;;5072456;28;20048;-60
2023/12/14 06:07:03;;;;;;;21.55;9.50;;;4.50;99.90;;;;;;5072559;28;20071;-60
2023/12/14 06:09:33;;;;;;;17.85;8.75;;;4.60;99.90;;;;;;5072105;28;20044;-60
2023/12/14 06:12:03;;;;;;;19.80;9.73;;;4.50;99.90;;;;;;5072215;28;20048;-60
2023/12/14 06:14:29;;;;;;;20.40;9.85;;;4.50;99.90;;;;;;5072085;28;20206;-59
2023/12/14 06:16:55;;;;;;;21.83;11.73;;;4.60;99.90;;;;;;5070603;28;20111;-60
2023/12/14 06:19:21;;;;;;;20.75;11.25;;;4.50;99.90;;;;;;5072205;28;20451;-60
2023/12/14 06:21:47;;;;;;;23.27;10.48;;;4.50;99.90;;;;;;5072173;28;20075;-60
2023/12/14 06:24:13;;;;;;;20.60;11.15;;;4.60;99.90;;;;;;5072213;28;20040;-60
2023/12/14 06:26:45;;;;;;;22.23;9.77;;;4.40;99.90;;;;;;5071997;28;20090;-60
2023/12/14 06:29:11;;;;;;;20.08;10.30;;;4.50;99.90;;;;;;5072207;28;20037;-60
2023/12/14 06:31:37;;;;;;;18.70;10.00;;;4.50;99.90;;;;;;5072125;28;20078;-60
2023/12/14 06:34:03;;;;;;;18.10;9.35;;;4.50;99.90;;;;;;5071811;28;20577;-60
2023/12/14 06:36:30;;;;;;;21.92;11.85;;;4.60;99.90;;;;;;5071489;28;20045;-60
2023/12/14 06:38:57;;;;;;;20.48;10.80;;;4.60;99.90;;;;;;5072046;28;20049;-60
2023/12/14 06:41:23;;;;;;;19.27;10.30;;;4.50;99.90;;;;;;5071967;28;20044;-61
2023/12/14 06:43:49;;;;;;;19.65;10.13;;;4.50;99.90;;;;;;5071903;28;20455;-59
2023/12/14 06:46:15;;;;;;;21.52;10.85;;;4.50;99.90;;;;;;5071736;28;20037;-60
2023/12/14 06:48:41;;;;;;;20.75;9.85;;;4.50;99.90;;;;;;5071859;28;20479;-59
2023/12/14 06:51:07;;;;;;;24.08;10.70;;;4.40;99.90;;;;;;5071947;28;20086;-60
2023/12/14 06:53:33;;;;;;;21.00;10.35;;;4.50;99.90;;;;;;5072029;28;20488;-60
2023/12/14 06:55:58;;;;;;;21.98;11.73;;;4.50;99.90;;;;;;5071583;28;20101;-60
2023/12/14 06:58:24;;;;;;;22.48;11.90;;;4.50;99.90;;;;;;5071790;28;20029;-60
2023/12/14 07:00:50;;;;;;;22.95;10.88;;;4.50;99.90;;;;;;5071871;28;20140;-60
2023/12/14 07:03:16;;;;;;;20.60;10.23;;;4.60;99.90;;;;;;5070374;28;20563;-60
2023/12/14 07:05:41;;;;;;;22.98;11.20;;;4.50;99.90;;;;;;5071587;28;20105;-60
2023/12/14 07:08:07;;;;;;;19.75;11.27;;;4.50;99.90;;;;;;5071469;28;20105;-60
2023/12/14 07:10:33;;;;;;;21.25;9.73;;;4.50;99.90;;;;;;5070059;28;20044;-45
2023/12/14 07:12:59;;;;;;;23.48;10.35;;;4.60;99.90;;;;;;5071540;28;20048;-45
2023/12/14 07:15:25;;;;;;;21.02;9.95;;;4.50;99.90;;;;;;5071258;28;20037;-44
2023/12/14 07:17:51;;;;;;;22.25;9.75;;;4.60;99.90;;;;;;5071138;28;20064;-45
2023/12/14 07:20:16;;;;;;;20.48;9.50;;;4.50;99.90;;;;;;5071684;28;20051;-45
2023/12/14 07:22:42;;;;;;;19.48;9.88;;;4.60;99.90;;;;;;5057084;28;20040;-44
2023/12/14 07:25:08;;;;;;;19.35;9.55;;;4.50;99.90;;;;;;5075167;28;20040;-44
2023/12/14 07:27:34;;;;;;;20.10;8.60;;;4.60;99.90;;;;;;5075181;28;20075;-44
2023/12/14 07:30:00;;;;;;;19.95;10.10;;;4.50;99.90;;;;;;5075042;28;20074;-44
2023/12/14 07:32:26;;;;;;;18.50;8.95;;;4.60;99.90;;;;;;5075061;28;20544;-45
2023/12/14 07:34:52;;;;;;;20.95;9.40;;;4.60;99.90;;;;;;5075159;28;20044;-44
2023/12/14 07:37:18;;;;;;;17.90;8.55;;;4.60;99.90;;;;;;5074583;28;20173;-44
2023/12/14 07:39:44;;;;;;;19.45;9.43;;;4.50;99.90;;;;;;5074645;28;20045;-45
2023/12/14 07:42:10;;;;;;;23.70;8.95;;;4.60;99.90;;;;;;5074961;28;20049;-48
2023/12/14 07:44:37;;;;;;;20.17;9.35;;;4.50;99.90;;;;;;5074837;28;20036;-44
2023/12/14 07:47:03;;;;;;;19.33;8.95;;;4.60;99.90;;;;;;5074569;28;20099;-46
2023/12/14 07:49:28;;;;;;;20.55;9.23;;;4.50;99.90;;;;;;5074478;28;20071;-45
2023/12/14 07:51:54;;;;;;;19.23;8.38;;;4.60;99.90;;;;;;5074491;28;20050;-47
2023/12/14 07:54:20;;;;;;;21.73;8.90;;;4.50;99.90;;;;;;5074354;28;20044;-46
2023/12/14 07:56:45;;;;;;;23.35;10.88;;;4.70;99.90;;;;;;5074492;28;20459;-46
2023/12/14 07:59:11;;;;;;;20.25;10.40;;;4.70;99.90;;;;;;5074709;28;20032;-45
2023/12/14 08:01:37;;;;;;;23.55;10.68;;;4.50;99.90;;;;;;5073305;28;20040;-45
2023/12/14 08:04:03;;;;;;;25.85;11.80;;;4.50;99.90;;;;;;5074589;28;20508;-47
2023/12/14 08:06:29;;;;;;;21.90;9.73;;;4.50;99.90;;;;;;5074383;28;20044;-49
2023/12/14 08:09:00;;;;;;;19.40;9.48;;;4.30;99.90;;;;;;5073151;28;20052;-49
2023/12/14 08:11:25;;;;;;;23.80;10.05;;;4.40;99.90;;;;;;5074431;28;20404;-45
2023/12/14 08:13:51;;;;;;;21.70;9.95;;;4.40;99.90;;;;;;5072906;28;20036;-47
2023/12/14 08:16:19;;;;;;;21.02;9.82;;;4.50;99.90;;;;;;5074242;28;20528;-48
2023/12/14 08:18:47;;;;;;;24.33;10.90;;;4.50;99.90;;;;;;5074148;28;20119;-45
2023/12/14 08:21:12;;;;;;;23.17;9.73;;;4.50;99.90;;;;;;5073991;28;20036;-48
2023/12/14 08:23:38;;;;;;;22.48;10.85;;;4.50;99.90;;;;;;5074235;28;20051;-44
2023/12/14 08:26:04;;;;;;;22.05;10.18;;;4.50;99.90;;;;;;5074153;28;20370;-45
2023/12/14 08:28:29;;;;;;;21.27;9.52;;;4.60;99.90;;;;;;5074407;28;20484;-45
2023/12/14 08:30:57;;;;;;;16.92;9.00;;;4.50;99.90;;;;;;5073859;28;20036;-45
2023/12/14 08:33:23;;;;;;;19.42;9.48;;;4.50;99.90;;;;;;5072687;28;20041;-44
2023/12/14 08:35:50;;;;;;;23.73;10.32;;;4.50;99.90;;;;;;5073737;28;20047;-45
2023/12/14 08:38:16;;;;;;;18.27;9.13;;;4.40;99.90;;;;;;5073359;28;20053;-45
2023/12/14 08:40:42;;;;;;;18.80;10.27;;;4.50;99.90;;;;;;5073800;28;20452;-45
2023/12/14 08:43:08;;;;;;;19.73;8.95;;;4.50;99.90;;;;;;5073639;28;20123;-44
2023/12/14 08:45:33;;;;;;;18.30;9.07;;;4.50;99.90;;;;;;5073442;28;20040;-45
2023/12/14 08:47:59;;;;;;;21.98;10.55;;;4.60;99.90;;;;;;5073607;28;20058;-46
2023/12/14 08:50:26;;;;;;;22.80;9.90;;;4.60;99.90;;;;;;5073452;28;20039;-46
2023/12/14 08:52:52;;;;;;;25.17;9.73;;;4.50;99.90;;;;;;5073573;28;20116;-45
2023/12/14 08:55:18;;;;;;;21.40;9.63;;;4.50;99.90;;;;;;5073338;28;20186;-44
2023/12/14 08:57:44;;;;;;;23.75;9.70;;;4.50;99.90;;;;;;5071804;28;20090;-44
2023/12/14 09:00:10;;;;;;;20.58;10.52;;;4.50;99.90;;;;;;5073290;28;20036;-48
2023/12/14 09:02:36;;;;;;;19.60;10.00;;;4.50;99.90;;;;;;5073173;28;20041;-49
2023/12/14 09:05:02;;;;;;;19.75;9.57;;;4.60;99.90;;;;;;5073166;28;20040;-45
2023/12/14 09:07:28;;;;;;;19.25;10.05;;;4.60;99.90;;;;;;5072939;28;20127;-48
2023/12/14 09:09:54;;;;;;;24.27;9.23;;;4.70;99.90;;;;;;5073296;28;20127;-49
2023/12/14 09:12:19;;;;;;;18.80;9.88;;;4.60;99.90;;;;;;5073179;28;20534;-48
2023/12/14 09:14:45;;;;;;;17.63;8.13;;;4.70;99.90;;;;;;5072943;28;20043;-46
2023/12/14 09:17:11;;;;;;;16.20;8.00;;;4.60;99.90;;;;;;5073048;28;20041;-48
2023/12/14 09:19:36;;;;;;;19.83;7.90;;;4.60;99.90;;;;;;5073056;28;20036;-47
2023/12/14 09:22:02;;;;;;;20.77;9.60;;;4.60;99.90;;;;;;5054908;28;20040;-47
2023/12/14 09:24:28;;;;;;;22.92;11.15;;;4.70;99.90;;;;;;5072727;28;20037;-45
2023/12/14 09:26:54;;;;;;;18.55;7.97;;;4.70;99.90;;;;;;5072801;28;20041;-48
2023/12/14 09:29:20;;;;;;;18.70;8.88;;;4.70;99.90;;;;;;5072577;28;20036;-49
2023/12/14 09:31:47;;;;;;;18.85;8.95;;;4.70;99.90;;;;;;5072587;28;20155;-47
2023/12/14 09:34:13;;;;;;;17.85;8.23;;;4.80;99.90;;;;;;5072441;28;20040;-47
2023/12/14 09:36:41;;;;;;;21.95;9.38;;;4.80;99.90;;;;;;5072318;28;20044;-48
2023/12/14 09:39:10;;;;;;;17.83;8.30;;;4.90;99.90;;;;;;5072530;28;20514;-45
2023/12/14 09:41:38;;;;;;;20.10;8.88;;;4.90;99.90;;;;;;5072215;28;20528;-45
2023/12/14 09:44:05;;;;;;;18.27;7.82;;;4.90;99.90;;;;;;5071590;28;20044;-45
2023/12/14 09:46:32;;;;;;;22.77;8.30;;;4.90;99.90;;;;;;5072298;28;20052;-45
2023/12/14 09:48:59;;;;;;;18.48;8.98;;;4.90;99.90;;;;;;5072308;28;20381;-44
2023/12/14 09:51:26;;;;;;;20.08;8.73;;;5.00;99.90;;;;;;5072206;28;20538;-46
2023/12/14 09:53:57;;;;;;;23.73;10.43;;;5.00;99.90;;;;;;5072518;28;20076;-46
2023/12/14 09:56:24;;;;;;;21.70;9.48;;;5.10;99.90;;;;;;5070822;28;20056;-45
2023/12/14 09:58:51;;;;;;;19.42;10.38;;;5.20;99.90;;;;;;5072415;28;20079;-44
2023/12/14 10:01:24;;;;;;;18.52;9.48;;;5.20;99.90;;;;;;5072402;28;20087;-45
2023/12/14 10:03:50;;;;;;;20.02;9.95;;;5.10;99.90;;;;;;5072182;28;20036;-45
2023/12/14 10:06:17;;;;;;;24.23;10.38;;;5.20;99.90;;;;;;5072272;28;20043;-45
2023/12/14 10:08:55;;;;;;;21.23;9.25;;;5.30;99.90;;;;;;5072250;28;20098;-45
2023/12/14 10:11:20;;;;;;;17.27;8.57;;;5.20;99.90;;;;;;5072066;28;20036;-44
2023/12/14 10:13:46;;;;;;;18.35;8.55;;;5.20;99.90;;;;;;5072004;28;20043;-44
2023/12/14 10:16:12;;;;;;;20.60;8.95;;;5.20;99.90;;;;;;5072306;28;20040;-44
2023/12/14 10:18:38;;;;;;;23.23;9.70;;;5.30;99.90;;;;;;5071873;28;20119;-45
2023/12/14 10:21:07;;;;;;;22.20;8.98;;;5.30;99.90;;;;;;5072083;28;20098;-45
2023/12/14 10:23:34;;;;;;;18.63;9.40;;;5.30;99.90;;;;;;5071584;28;20040;-48
2023/12/14 10:26:00;;;;;;;18.60;9.23;;;5.30;99.90;;;;;;5071836;28;20048;-47
2023/12/14 10:28:27;;;;;;;16.85;8.73;;;5.30;99.90;;;;;;5072416;28;20049;-47
2023/12/14 10:30:53;;;;;;;20.10;9.43;;;5.20;99.90;;;;;;5071910;28;20040;-45
2023/12/14 10:33:18;;;;;;;18.27;8.63;;;5.30;99.90;;;;;;5071091;28;20045;-45
2023/12/14 10:35:46;;;;;;;23.05;10.70;;;5.30;99.90;;;;;;5069131;28;20044;-46
2023/12/14 10:38:14;;;;;;;20.58;10.25;;;5.30;99.90;;;;;;5070414;28;20434;-47
2023/12/14 10:40:43;;;;;;;20.92;9.93;;;5.50;99.90;;;;;;5070706;28;20480;-45
2023/12/14 10:43:10;;;;;;;20.83;9.82;;;5.40;99.90;;;;;;5071716;28;20048;-46
2023/12/14 10:45:38;;;;;;;19.30;9.15;;;5.40;99.90;;;;;;5072011;28;20463;-49
2023/12/14 10:48:06;;;;;;;20.00;10.52;;;5.40;99.90;;;;;;5071756;28;20060;-44
2023/12/14 10:50:32;;;;;;;23.63;10.35;;;5.40;99.90;;;;;;5071687;28;20098;-49
2023/12/14 10:52:59;;;;;;;20.13;10.05;;;5.60;99.90;;;;;;5071697;28;20048;-46
2023/12/14 10:55:30;;;;;;;18.70;8.70;;;5.50;99.90;;;;;;5072016;28;20435;-48
2023/12/14 10:57:57;;;;;;;19.50;8.25;;;5.60;99.90;;;;;;5075704;28;20095;-49
2023/12/14 11:00:23;;;;;;;20.13;8.60;;;5.60;99.90;;;;;;5075551;28;20119;-48
2023/12/14 11:02:49;;;;;;;23.30;10.35;;;5.60;99.90;;;;;;5075474;28;20124;-48
2023/12/14 11:05:19;;;;;;;17.65;9.50;;;5.70;99.90;;;;;;5074422;28;20132;-49
2023/12/14 11:07:46;;;;;;;19.70;9.80;;;5.70;99.90;;;;;;5075261;28;20041;-46
2023/12/14 11:10:12;;;;;;;25.58;10.73;;;5.70;99.90;;;;;;5075497;28;20059;-45
2023/12/14 11:12:49;;;;;;;22.13;9.77;;;5.70;99.90;;;;;;5073956;28;20044;-47
2023/12/14 11:15:21;;;;;;;20.40;10.20;;;5.70;99.90;;;;;;5075128;28;20048;-48
2023/12/14 11:18:11;;;;;;;20.38;9.40;;;5.70;99.90;;;;;;5075357;28;20048;-47
2023/12/14 11:20:49;;;;;;;17.92;9.25;;;5.70;99.90;;;;;;5073751;28;20047;-49
2023/12/14 11:23:17;;;;;;;20.48;9.45;;;5.70;99.90;;;;;;5075267;28;20033;-45
2023/12/14 11:25:43;;;;;;;17.67;9.05;;;5.70;99.90;;;;;;5075029;28;20076;-46
2023/12/14 11:28:09;;;;;;;20.10;9.68;;;5.90;99.90;;;;;;5074845;28;20127;-47
2023/12/14 11:30:36;;;;;;;17.73;9.07;;;5.90;99.90;;;;;;5075003;28;20443;-45
2023/12/14 11:33:02;;;;;;;19.67;9.65;;;5.80;99.90;;;;;;5073872;28;20044;-46
2023/12/14 11:35:28;;;;;;;20.52;8.95;;;5.70;99.90;;;;;;5075246;28;20036;-50
2023/12/14 11:37:56;;;;;;;19.17;9.27;;;5.80;99.90;;;;;;5074616;28;20056;-49
2023/12/14 11:40:22;;;;;;;18.48;8.75;;;5.80;99.90;;;;;;5074776;28;20045;-47
2023/12/14 11:42:59;;;;;;;16.90;8.85;;;5.80;99.90;;;;;;5074599;28;20036;-46
2023/12/14 11:45:26;;;;;;;16.65;8.80;;;5.80;99.90;;;;;;5074643;28;20044;-47
2023/12/14 11:47:52;;;;;;;19.60;10.10;;;5.70;99.90;;;;;;5074800;28;20075;-47
2023/12/14 11:50:18;;;;;;;19.33;9.73;;;5.70;99.90;;;;;;5074873;28;20040;-47
2023/12/14 11:52:44;;;;;;;19.10;10.15;;;5.60;99.90;;;;;;5074859;28;20106;-50
2023/12/14 11:55:14;;;;;;;16.35;8.35;;;5.70;99.90;;;;;;5074474;28;20068;-47
2023/12/14 11:57:45;;;;;;;22.58;10.02;;;5.60;99.90;;;;;;5074696;28;20048;-48
2023/12/14 12:00:11;;;;;;;21.17;10.57;;;5.60;99.90;;;;;;5074267;28;20523;-50
2023/12/14 12:02:37;;;;;;;18.45;10.43;;;5.40;99.90;;;;;;5074197;28;20044;-48
2023/12/14 12:05:03;;;;;;;16.67;9.75;;;5.40;99.90;;;;;;5074493;28;20041;-47
2023/12/14 12:07:29;;;;;;;19.48;9.65;;;5.50;99.90;;;;;;5073757;28;20087;-46
2023/12/14 12:09:55;;;;;;;17.75;8.93;;;5.50;99.90;;;;;;5074060;28;20040;-45
2023/12/14 12:12:21;;;;;;;20.35;9.43;;;5.60;99.90;;;;;;5074184;28;20068;-46
2023/12/14 12:14:49;;;;;;;18.88;9.32;;;5.60;99.90;;;;;;5072966;28;20553;-46
2023/12/14 12:17:15;;;;;;;21.85;10.15;;;5.50;99.90;;;;;;5073992;28;20056;-47
2023/12/14 12:19:42;;;;;;;20.13;9.45;;;5.40;99.90;;;;;;5073982;28;20516;-46
2023/12/14 12:22:08;;;;;;;20.20;9.35;;;5.50;99.90;;;;;;5074007;28;20158;-47
2023/12/14 12:24:34;;;;;;;18.40;9.05;;;5.40;99.90;;;;;;5074011;28;20131;-50
2023/12/14 12:27:00;;;;;;;19.55;9.77;;;5.40;99.90;;;;;;5072559;28;20044;-48
2023/12/14 12:29:25;;;;;;;21.27;9.93;;;5.40;99.90;;;;;;5073808;28;20040;-50
2023/12/14 12:31:51;;;;;;;18.85;9.30;;;5.30;99.90;;;;;;5073803;28;20047;-46
2023/12/14 12:34:17;;;;;;;20.70;9.27;;;5.40;99.90;;;;;;5073720;28;20052;-50
2023/12/14 12:36:44;;;;;;;23.20;9.70;;;5.40;99.90;;;;;;5072368;28;20092;-47
2023/12/14 12:39:09;;;;;;;18.15;10.18;;;5.40;99.90;;;;;;5073727;28;20143;-46
2023/12/14 12:41:38;;;;;;;19.13;9.70;;;5.30;99.90;;;;;;5073474;28;20170;-46